Time;durP1;ratioP1;P1;durP2;ratioP2;P2;SDS_P1;SDS_P2;PMS_P1;PMS_P2;Temp;Humidity;BMP_temperature;BMP_pressure;BME280_temperature;BME280_humidity;BME280_pressure;Samples;Min_cycle;Max_cycle;Signal;HPM_P1;HPM_P2
2021/07/26 00:02:23;;;;;;;1.10;1.08;;;24.70;79.20;;;;;;4957184;29;20391;-91
2021/07/26 00:04:49;;;;;;;2.53;2.17;;;24.80;79.50;;;;;;4940263;29;20395;-83
2021/07/26 00:07:14;;;;;;;1.65;1.50;;;24.60;79.90;;;;;;4941693;29;20500;-82
2021/07/26 00:09:40;;;;;;;0.95;0.95;;;24.60;80.00;;;;;;4959845;29;20149;-84
2021/07/26 00:12:07;;;;;;;1.95;1.80;;;24.50;79.40;;;;;;4959677;29;20441;-85
2021/07/26 00:14:34;;;;;;;1.30;1.20;;;24.60;80.00;;;;;;4957924;29;20039;-85
2021/07/26 00:17:00;;;;;;;0.82;0.77;;;24.60;80.30;;;;;;4956977;29;20049;-90
2021/07/26 00:19:26;;;;;;;1.05;1.02;;;24.70;80.00;;;;;;4957066;29;20449;-87
2021/07/26 00:21:51;;;;;;;1.17;1.08;;;24.70;79.80;;;;;;4956656;29;20031;-90
2021/07/26 00:24:18;;;;;;;1.98;1.30;;;24.70;80.00;;;;;;4956776;29;20039;-87
2021/07/26 00:26:44;;;;;;;2.15;1.90;;;24.80;80.00;;;;;;4939468;29;20049;-80
2021/07/26 00:29:10;;;;;;;1.20;1.10;;;24.80;79.50;;;;;;4955669;29;20050;-86
2021/07/26 00:31:36;;;;;;;2.40;1.58;;;24.60;80.00;;;;;;4939463;29;20039;-88
2021/07/26 00:34:20;;;;;;;1.27;1.17;;;24.60;80.40;;;;;;4956788;29;20031;-87
2021/07/26 00:36:58;;;;;;;0.70;0.70;;;24.40;80.40;;;;;;4956285;29;20071;-85
2021/07/26 00:39:28;;;;;;;0.98;0.98;;;24.50;81.40;;;;;;4956275;29;20067;-84
2021/07/26 00:41:55;;;;;;;0.85;0.85;;;24.50;81.80;;;;;;4956215;29;20035;-89
2021/07/26 00:44:22;;;;;;;1.75;1.63;;;24.60;81.80;;;;;;4955923;29;20332;-83
2021/07/26 00:46:49;;;;;;;1.65;1.55;;;24.50;81.70;;;;;;4956495;29;20113;-86
2021/07/26 00:49:16;;;;;;;1.20;1.10;;;24.50;81.80;;;;;;4956283;29;20049;-87
2021/07/26 00:51:53;;;;;;;1.33;1.23;;;24.60;82.30;;;;;;4956096;29;20090;-88
2021/07/26 00:54:40;;;;;;;0.90;0.90;;;24.50;82.60;;;;;;4955703;29;20035;-91
2021/07/26 00:57:07;;;;;;;0.98;0.95;;;24.40;82.90;;;;;;4954845;28;20464;-82
2021/07/26 00:59:34;;;;;;;1.33;1.23;;;24.40;82.40;;;;;;4954709;28;20038;-83
2021/07/26 01:02:00;;;;;;;2.03;1.77;;;24.40;82.50;;;;;;4955768;29;20059;-90
2021/07/26 01:04:27;;;;;;;2.92;1.73;;;24.20;82.30;;;;;;4956377;29;20058;-88
2021/07/26 01:06:54;;;;;;;1.50;1.40;;;24.40;81.80;;;;;;4955991;29;20047;-87
2021/07/26 01:09:20;;;;;;;1.10;1.00;;;24.40;82.30;;;;;;4955611;29;20047;-84
2021/07/26 01:11:46;;;;;;;4.57;1.55;;;24.40;81.70;;;;;;4938545;29;20027;-81
2021/07/26 01:14:15;;;;;;;0.88;0.88;;;24.40;82.20;;;;;;4955243;29;20050;-86
2021/07/26 01:16:42;;;;;;;0.93;0.93;;;24.30;81.50;;;;;;4955757;29;20032;-89
2021/07/26 01:19:08;;;;;;;1.23;1.13;;;23.80;82.20;;;;;;4955737;29;20041;-85
2021/07/26 01:21:34;;;;;;;1.13;1.08;;;23.60;82.10;;;;;;4955858;29;20047;-85
2021/07/26 01:24:01;;;;;;;1.13;0.90;;;23.60;82.70;;;;;;4955384;29;20428;-85
2021/07/26 01:26:27;;;;;;;1.88;1.60;;;23.90;82.90;;;;;;4955272;29;20380;-83
2021/07/26 01:28:59;;;;;;;0.88;0.88;;;24.00;82.90;;;;;;4938072;29;20053;-84
2021/07/26 01:31:25;;;;;;;1.30;1.20;;;23.80;83.10;;;;;;4955362;29;20057;-83
2021/07/26 01:33:52;;;;;;;2.17;2.00;;;23.10;86.80;;;;;;4955551;29;20119;-88
2021/07/26 01:36:19;;;;;;;1.30;1.20;;;23.00;88.30;;;;;;4955103;29;20039;-89
2021/07/26 01:38:46;;;;;;;1.38;1.27;;;23.10;88.50;;;;;;4955056;29;20509;-86
2021/07/26 01:41:18;;;;;;;1.35;1.25;;;23.10;88.70;;;;;;4955052;29;20027;-90
2021/07/26 01:44:01;;;;;;;2.05;1.88;;;23.50;88.10;;;;;;4937668;29;20043;-89
2021/07/26 01:46:49;;;;;;;3.50;1.55;;;23.80;86.90;;;;;;4955327;29;20390;-85
2021/07/26 01:49:21;;;;;;;1.80;1.70;;;23.90;86.70;;;;;;4955130;29;20039;-84
2021/07/26 01:51:48;;;;;;;1.35;1.25;;;24.00;86.60;;;;;;4955301;29;20043;-89
2021/07/26 01:54:14;;;;;;;1.00;1.00;;;24.10;86.90;;;;;;4954813;29;20114;-83
2021/07/26 01:56:40;;;;;;;0.80;0.80;;;24.20;86.80;;;;;;4954604;29;20077;-84
2021/07/26 01:59:07;;;;;;;1.40;1.30;;;24.10;87.10;;;;;;4954711;28;20548;-87
2021/07/26 02:01:32;;;;;;;1.42;1.33;;;24.00;87.10;;;;;;4955089;29;20376;-90
2021/07/26 02:03:59;;;;;;;5.05;1.60;;;23.80;87.10;;;;;;4937373;29;20493;-81
2021/07/26 02:06:26;;;;;;;1.35;1.25;;;23.20;89.10;;;;;;4954798;29;20097;-86
2021/07/26 02:08:51;;;;;;;1.15;1.13;;;23.10;90.10;;;;;;4954512;29;20452;-84
2021/07/26 02:11:21;;;;;;;2.38;1.95;;;23.60;89.80;;;;;;4954125;28;20069;-82
2021/07/26 02:13:50;;;;;;;2.35;2.15;;;23.80;89.40;;;;;;4954451;29;20479;-83
2021/07/26 02:16:15;;;;;;;1.00;1.00;;;23.80;89.20;;;;;;4955105;29;20119;-89
2021/07/26 02:18:41;;;;;;;0.90;0.90;;;23.90;89.00;;;;;;4954453;29;20120;-85
2021/07/26 02:21:07;;;;;;;4.13;2.15;;;24.00;88.90;;;;;;4955572;29;20479;-87
2021/07/26 02:23:33;;;;;;;0.80;0.80;;;24.00;88.80;;;;;;4937139;29;20046;-83
2021/07/26 02:25:58;;;;;;;7.28;2.13;;;23.90;89.10;;;;;;4954303;29;20087;-86
2021/07/26 02:28:24;;;;;;;3.60;2.35;;;23.90;89.10;;;;;;4954271;29;20051;-84
2021/07/26 02:30:50;;;;;;;3.28;1.90;;;23.70;89.70;;;;;;4937398;29;20062;-85
2021/07/26 02:33:16;;;;;;;1.27;1.23;;;23.90;89.90;;;;;;4954078;29;20035;-84
2021/07/26 02:35:42;;;;;;;0.80;0.80;;;23.80;90.20;;;;;;4954722;29;20057;-87
2021/07/26 02:38:08;;;;;;;2.42;1.60;;;23.80;90.30;;;;;;4954277;29;20098;-90
2021/07/26 02:40:34;;;;;;;1.48;1.38;;;23.60;89.50;;;;;;4936925;29;20047;-88
2021/07/26 02:43:00;;;;;;;0.90;0.90;;;23.70;90.00;;;;;;4953703;29;20094;-85
2021/07/26 02:45:27;;;;;;;5.18;4.85;;;23.60;90.40;;;;;;4937081;29;20499;-86
2021/07/26 02:47:53;;;;;;;1.30;1.20;;;23.60;90.70;;;;;;4954086;29;20067;-86
2021/07/26 02:50:20;;;;;;;1.73;1.63;;;23.60;91.20;;;;;;4954185;29;20047;-80
2021/07/26 02:52:46;;;;;;;9.50;3.15;;;23.50;91.40;;;;;;4937506;29;20027;-84
2021/07/26 02:55:13;;;;;;;2.13;1.92;;;23.50;91.30;;;;;;4954431;29;20042;-85
2021/07/26 02:57:39;;;;;;;1.23;1.13;;;23.60;91.00;;;;;;4954062;28;20069;-89
2021/07/26 03:00:06;;;;;;;4.18;1.77;;;23.50;90.90;;;;;;4936830;29;20067;-83
2021/07/26 03:02:36;;;;;;;1.92;1.73;;;23.40;90.90;;;;;;4954106;29;20042;-89
2021/07/26 03:05:03;;;;;;;1.58;1.45;;;22.80;92.00;;;;;;4954462;29;20032;-90
2021/07/26 03:07:29;;;;;;;1.83;1.52;;;22.90;92.30;;;;;;4954349;29;20043;-86
2021/07/26 03:09:54;;;;;;;2.00;1.45;;;22.80;92.50;;;;;;4954245;29;20039;-87
2021/07/26 03:12:20;;;;;;;1.20;1.10;;;22.50;93.20;;;;;;4954104;29;20390;-84
2021/07/26 03:14:46;;;;;;;1.15;1.10;;;22.80;92.90;;;;;;4936911;29;20498;-86
2021/07/26 03:17:11;;;;;;;1.80;1.40;;;23.10;92.80;;;;;;4954172;29;20042;-90
2021/07/26 03:19:37;;;;;;;2.85;1.65;;;22.80;92.90;;;;;;4954177;29;20148;-86
2021/07/26 03:22:55;;;;;;;3.15;1.75;;;22.60;93.40;;;;;;4937619;29;20090;-84
2021/07/26 03:25:20;;;;;;;1.98;1.77;;;22.20;94.60;;;;;;4917415;29;20031;-89
2021/07/26 03:27:48;;;;;;;1.40;1.30;;;22.20;95.00;;;;;;4957624;29;20058;-90
2021/07/26 03:30:15;;;;;;;1.95;1.85;;;22.60;94.70;;;;;;4957413;29;20103;-87
2021/07/26 03:32:41;;;;;;;1.30;1.20;;;23.00;94.10;;;;;;4957688;29;20028;-87
2021/07/26 03:35:07;;;;;;;1.83;1.65;;;23.20;93.80;;;;;;4940030;29;20039;-87
2021/07/26 03:37:33;;;;;;;1.35;1.25;;;23.20;93.70;;;;;;4957445;29;20043;-89
2021/07/26 03:39:59;;;;;;;0.90;0.90;;;23.20;93.90;;;;;;4957422;29;20031;-86
2021/07/26 03:42:25;;;;;;;0.90;0.90;;;23.20;94.00;;;;;;4957471;29;20031;-86
2021/07/26 03:44:50;;;;;;;3.97;2.15;;;23.30;93.80;;;;;;4956828;29;20534;-89
2021/07/26 03:47:17;;;;;;;1.60;1.50;;;23.40;93.70;;;;;;4957318;29;20047;-88
2021/07/26 03:49:43;;;;;;;1.67;1.45;;;23.40;93.40;;;;;;4957631;29;20418;-91
2021/07/26 03:52:08;;;;;;;1.23;1.15;;;23.50;93.40;;;;;;4939983;29;20039;-87
2021/07/26 03:54:34;;;;;;;1.52;1.42;;;23.30;93.50;;;;;;4940476;29;20103;-87
2021/07/26 03:57:00;;;;;;;2.22;1.85;;;23.40;93.90;;;;;;4957002;28;20055;-80
2021/07/26 03:59:25;;;;;;;1.45;1.35;;;23.40;94.20;;;;;;4957224;29;20031;-88
2021/07/26 04:01:55;;;;;;;1.10;1.08;;;23.40;94.10;;;;;;4956553;29;20039;-82
2021/07/26 04:04:25;;;;;;;1.98;1.75;;;23.30;94.90;;;;;;4957060;29;20047;-88
2021/07/26 04:07:00;;;;;;;1.00;1.00;;;23.30;94.70;;;;;;4956883;29;20111;-85
2021/07/26 04:09:30;;;;;;;1.92;1.80;;;23.10;94.80;;;;;;4939590;29;20490;-81
2021/07/26 04:12:08;;;;;;;;;;;23.10;95.00;;;;;;4957473;29;20027;-85
2021/07/26 04:14:40;;;;;;;1.10;1.10;;;23.00;95.10;;;;;;4956933;29;20301;-89
2021/07/26 04:17:06;;;;;;;1.38;1.27;;;23.20;95.30;;;;;;4939702;29;20043;-87
2021/07/26 04:19:32;;;;;;;0.90;0.90;;;23.30;95.10;;;;;;4956603;29;20058;-86
2021/07/26 04:21:58;;;;;;;2.42;2.25;;;23.40;94.70;;;;;;4939714;29;20071;-84
2021/07/26 04:24:25;;;;;;;1.58;1.48;;;23.40;95.00;;;;;;4956458;29;20395;-87
2021/07/26 04:26:51;;;;;;;2.88;2.17;;;23.30;95.20;;;;;;4939430;29;20041;-89
2021/07/26 04:29:17;;;;;;;7.38;3.20;;;23.40;95.20;;;;;;4956276;29;20158;-90
2021/07/26 04:31:43;;;;;;;1.40;1.30;;;23.40;95.50;;;;;;4956370;29;20470;-90
2021/07/26 04:34:10;;;;;;;2.10;1.90;;;23.60;95.60;;;;;;4956840;28;20040;-84
2021/07/26 04:36:35;;;;;;;1.52;1.42;;;23.60;95.50;;;;;;4956251;29;20035;-85
2021/07/26 04:39:01;;;;;;;3.63;2.78;;;23.50;95.70;;;;;;4938998;29;20444;-79
2021/07/26 04:41:27;;;;;;;3.65;1.65;;;23.60;95.90;;;;;;4939115;29;20077;-87
2021/07/26 04:43:53;;;;;;;4.53;2.13;;;23.60;95.50;;;;;;4956138;29;20079;-82
2021/07/26 04:46:18;;;;;;;1.73;1.27;;;23.30;95.40;;;;;;4956752;29;20031;-88
2021/07/26 04:48:44;;;;;;;1.10;1.00;;;23.40;95.60;;;;;;4956047;29;20050;-88
2021/07/26 04:51:10;;;;;;;2.20;1.50;;;23.60;95.40;;;;;;4956294;29;20035;-89
2021/07/26 04:53:35;;;;;;;1.45;1.35;;;23.60;95.50;;;;;;4939067;29;20086;-87
2021/07/26 04:56:01;;;;;;;1.20;1.10;;;23.70;95.60;;;;;;4956071;29;20078;-89
2021/07/26 04:58:27;;;;;;;4.10;2.03;;;23.80;95.50;;;;;;4955510;28;20035;-93
2021/07/26 05:00:53;;;;;;;1.00;0.98;;;23.80;95.20;;;;;;4955931;29;20089;-87
2021/07/26 05:03:18;;;;;;;1.25;1.17;;;23.90;94.90;;;;;;4955785;29;20059;-86
2021/07/26 05:05:44;;;;;;;0.90;0.90;;;24.00;94.50;;;;;;4955725;29;20046;-85
2021/07/26 05:08:10;;;;;;;1.50;1.40;;;24.10;94.10;;;;;;4955436;29;20487;-80
2021/07/26 05:10:36;;;;;;;1.63;1.52;;;24.00;94.00;;;;;;4955641;29;20388;-85
2021/07/26 05:13:02;;;;;;;0.70;0.70;;;24.10;94.00;;;;;;4955655;29;20365;-85
2021/07/26 05:15:27;;;;;;;1.50;1.38;;;24.10;94.00;;;;;;4938296;29;20054;-83
2021/07/26 05:17:53;;;;;;;1.63;1.52;;;24.30;94.60;;;;;;4955182;29;20531;-83
2021/07/26 05:20:19;;;;;;;1.50;1.40;;;24.40;95.00;;;;;;4938146;29;20047;-79
2021/07/26 05:22:45;;;;;;;1.55;1.45;;;24.40;94.40;;;;;;4955193;29;20060;-89
2021/07/26 05:25:11;;;;;;;1.17;1.10;;;24.50;94.00;;;;;;4937832;29;20035;-90
2021/07/26 05:27:37;;;;;;;1.15;1.08;;;24.60;94.00;;;;;;4955250;29;20434;-92
2021/07/26 05:30:06;;;;;;;1.80;1.65;;;24.50;94.00;;;;;;4955003;29;20118;-90
2021/07/26 05:32:31;;;;;;;4.40;1.90;;;24.50;93.80;;;;;;4955178;29;20082;-89
2021/07/26 05:34:57;;;;;;;2.65;2.35;;;24.50;93.70;;;;;;4955485;29;20042;-89
2021/07/26 05:37:23;;;;;;;1.23;1.13;;;24.60;93.70;;;;;;4955256;29;20031;-85
2021/07/26 05:39:49;;;;;;;0.77;0.77;;;24.60;93.50;;;;;;4955042;29;20305;-89
2021/07/26 05:42:16;;;;;;;1.40;1.15;;;24.60;93.40;;;;;;4938151;29;20027;-89
2021/07/26 05:44:43;;;;;;;2.03;1.40;;;24.60;93.50;;;;;;4937137;29;20136;-83
2021/07/26 05:47:10;;;;;;;1.27;1.10;;;24.70;93.40;;;;;;4954707;29;20090;-89
2021/07/26 05:49:36;;;;;;;0.90;0.90;;;24.90;93.30;;;;;;4937814;29;20074;-87
2021/07/26 05:52:02;;;;;;;2.08;1.77;;;24.90;93.00;;;;;;4955206;29;20094;-85
2021/07/26 05:54:28;;;;;;;1.27;1.20;;;25.00;93.20;;;;;;4954143;29;20475;-88
2021/07/26 05:56:54;;;;;;;4.35;1.25;;;25.00;93.10;;;;;;4954545;28;20061;-86
2021/07/26 05:59:21;;;;;;;1.33;1.23;;;25.00;93.20;;;;;;4954760;29;20031;-88
2021/07/26 06:01:49;;;;;;;0.75;0.75;;;25.20;93.80;;;;;;4955003;29;20035;-86
2021/07/26 06:04:20;;;;;;;1.98;1.73;;;25.20;93.60;;;;;;4954675;29;20118;-88
2021/07/26 06:06:46;;;;;;;;;;;25.30;93.70;;;;;;4955136;29;20042;-83
2021/07/26 06:09:13;;;;;;;1.70;1.40;;;25.40;93.60;;;;;;4937068;29;19914;-92
2021/07/26 06:11:39;;;;;;;3.58;2.88;;;25.40;93.00;;;;;;4954718;29;20029;-90
2021/07/26 06:14:06;;;;;;;0.80;0.80;;;25.40;93.10;;;;;;4954626;29;20431;-80
2021/07/26 06:16:32;;;;;;;3.20;2.80;;;25.50;93.30;;;;;;4954565;29;20051;-87
2021/07/26 06:19:08;;;;;;;1.17;1.08;;;25.50;93.20;;;;;;4954553;29;20039;-88
2021/07/26 06:21:34;;;;;;;0.98;0.95;;;25.60;93.70;;;;;;4954593;29;20047;-80
2021/07/26 06:24:00;;;;;;;1.85;1.63;;;25.60;93.50;;;;;;4936993;29;20035;-84
2021/07/26 06:26:25;;;;;;;0.70;0.70;;;25.60;93.50;;;;;;4954225;29;20035;-87
2021/07/26 06:28:52;;;;;;;26.77;3.47;;;25.70;93.20;;;;;;4953990;29;20050;-87
2021/07/26 06:31:18;;;;;;;0.80;0.80;;;25.70;93.40;;;;;;4954087;29;20067;-85
2021/07/26 06:33:44;;;;;;;2.58;2.15;;;25.80;93.30;;;;;;4954507;29;20043;-85
2021/07/26 06:36:09;;;;;;;0.90;0.88;;;25.80;93.00;;;;;;4954477;29;20067;-85
2021/07/26 06:38:36;;;;;;;0.80;0.80;;;25.80;93.40;;;;;;4954065;29;20110;-85
2021/07/26 06:41:02;;;;;;;13.10;1.20;;;25.90;93.70;;;;;;4937090;29;20036;-84
2021/07/26 06:43:27;;;;;;;1.33;1.02;;;25.80;93.50;;;;;;4953695;29;20444;-89
2021/07/26 06:45:53;;;;;;;1.33;0.95;;;25.70;93.20;;;;;;4954686;29;20058;-89
2021/07/26 06:48:21;;;;;;;4.20;1.52;;;25.80;93.30;;;;;;4954091;29;20050;-91
2021/07/26 06:50:47;;;;;;;1.60;1.35;;;25.90;92.80;;;;;;4954846;29;20415;-88
2021/07/26 06:53:12;;;;;;;1.75;1.17;;;25.90;92.80;;;;;;4955313;29;20510;-82
2021/07/26 06:55:38;;;;;;;1.60;1.50;;;26.00;92.90;;;;;;4956837;29;20055;-87
2021/07/26 06:58:05;;;;;;;1.40;0.98;;;25.90;92.60;;;;;;4958664;28;20051;-86
2021/07/26 07:00:31;;;;;;;0.68;0.65;;;26.00;92.80;;;;;;4961008;29;20031;-90
2021/07/26 07:02:57;;;;;;;1.85;1.55;;;26.10;92.90;;;;;;4959071;29;20039;-91
2021/07/26 07:05:23;;;;;;;0.60;0.60;;;26.10;92.90;;;;;;4941129;29;20061;-91
2021/07/26 07:07:49;;;;;;;4.13;1.88;;;26.10;92.80;;;;;;4957129;29;20555;-91
2021/07/26 07:10:15;;;;;;;1.10;1.00;;;26.30;92.70;;;;;;4957886;29;20507;-87
2021/07/26 07:12:41;;;;;;;0.70;0.70;;;26.40;92.30;;;;;;4958254;29;20106;-88
2021/07/26 07:15:07;;;;;;;0.65;0.65;;;26.20;92.10;;;;;;4957377;29;20114;-81
2021/07/26 07:17:33;;;;;;;1.05;1.00;;;26.30;91.90;;;;;;4957689;29;20475;-87
2021/07/26 07:19:59;;;;;;;0.60;0.60;;;26.30;92.20;;;;;;4940585;29;20039;-86
2021/07/26 07:22:25;;;;;;;0.70;0.70;;;26.50;91.70;;;;;;4957749;29;20038;-89
2021/07/26 07:24:51;;;;;;;0.60;0.60;;;26.60;91.70;;;;;;4957532;29;20403;-88
2021/07/26 07:27:16;;;;;;;1.45;1.17;;;26.60;91.70;;;;;;4939928;29;20042;-87
2021/07/26 07:29:42;;;;;;;0.50;0.50;;;26.60;91.50;;;;;;4940315;29;20043;-91
2021/07/26 07:32:12;;;;;;;0.98;0.95;;;26.60;91.50;;;;;;4957318;29;20027;-87
2021/07/26 07:34:41;;;;;;;1.13;1.05;;;26.80;91.50;;;;;;4957635;29;20039;-86
2021/07/26 07:37:10;;;;;;;0.80;0.80;;;26.80;91.10;;;;;;4957932;29;20063;-84
2021/07/26 07:39:36;;;;;;;2.45;1.70;;;26.70;91.00;;;;;;4957084;29;20043;-80
2021/07/26 07:42:04;;;;;;;1.15;1.05;;;26.80;91.40;;;;;;4957411;29;20085;-86
2021/07/26 07:44:32;;;;;;;0.47;0.47;;;26.90;91.20;;;;;;4957029;29;20039;-89
2021/07/26 07:47:46;;;;;;;;;;;;;;;;;;;;;
2021/07/26 07:50:08;;;;;;;1.05;0.93;;;27.00;91.20;;;;;;4922076;29;20047;-89
2021/07/26 07:52:37;;;;;;;0.60;0.60;;;26.90;91.10;;;;;;4957417;29;20035;-92
2021/07/26 07:55:15;;;;;;;0.70;0.70;;;27.10;91.00;;;;;;4939517;29;20066;-83
2021/07/26 07:57:41;;;;;;;1.40;1.30;;;27.00;91.30;;;;;;4939207;29;20086;-88
2021/07/26 08:00:12;;;;;;;0.60;0.60;;;27.00;90.30;;;;;;4939775;29;20055;-91
2021/07/26 08:02:38;;;;;;;0.70;0.70;;;27.00;90.40;;;;;;4939940;29;20032;-85
2021/07/26 08:05:04;;;;;;;1.08;0.80;;;27.10;90.80;;;;;;4956333;29;20043;-81
2021/07/26 08:07:30;;;;;;;1.27;1.02;;;27.10;90.30;;;;;;4956466;28;20093;-82
2021/07/26 08:09:56;;;;;;;0.60;0.60;;;27.10;90.40;;;;;;4939220;29;20051;-79
2021/07/26 08:12:22;;;;;;;0.70;0.70;;;27.10;90.30;;;;;;4956364;29;20092;-83
2021/07/26 08:14:47;;;;;;;1.15;1.05;;;27.10;90.50;;;;;;4956251;29;20046;-81
2021/07/26 08:17:13;;;;;;;0.55;0.55;;;27.40;90.60;;;;;;4956116;29;20034;-85
2021/07/26 08:19:39;;;;;;;0.60;0.60;;;27.50;90.20;;;;;;4938704;29;20128;-82
2021/07/26 08:22:05;;;;;;;0.77;0.77;;;27.50;88.80;;;;;;4938858;29;20510;-83
2021/07/26 08:24:30;;;;;;;1.50;1.20;;;27.50;89.50;;;;;;4939363;29;20507;-85
2021/07/26 08:26:56;;;;;;;0.90;0.88;;;27.60;87.80;;;;;;4956599;29;20392;-82
2021/07/26 08:29:22;;;;;;;1.13;1.02;;;27.60;86.30;;;;;;4956219;29;20488;-92
2021/07/26 08:31:48;;;;;;;0.50;0.50;;;27.70;86.60;;;;;;4956443;29;20534;-88
2021/07/26 08:34:13;;;;;;;0.90;0.77;;;27.80;87.10;;;;;;4956349;29;20043;-89
2021/07/26 08:36:39;;;;;;;2.90;1.95;;;27.80;86.70;;;;;;4956320;29;20740;-86
2021/07/26 08:39:05;;;;;;;0.60;0.60;;;27.80;86.00;;;;;;4955963;29;20047;-80
2021/07/26 08:41:31;;;;;;;0.90;0.75;;;27.80;85.80;;;;;;4955915;29;20392;-86
2021/07/26 08:43:56;;;;;;;0.65;0.65;;;28.00;86.00;;;;;;4955551;29;20053;-83
2021/07/26 08:46:23;;;;;;;0.60;0.60;;;28.10;85.80;;;;;;4955698;29;20042;-85
2021/07/26 08:48:50;;;;;;;2.47;0.98;;;28.20;84.70;;;;;;4955683;29;20460;-82
2021/07/26 08:51:19;;;;;;;1.73;1.27;;;27.70;85.00;;;;;;4956127;29;20027;-87
2021/07/26 08:53:48;;;;;;;1.23;1.00;;;28.00;83.90;;;;;;4955736;29;20035;-82
2021/07/26 08:56:17;;;;;;;0.75;0.75;;;28.10;84.10;;;;;;4955037;29;20043;-82
2021/07/26 08:58:45;;;;;;;0.60;0.60;;;28.30;83.40;;;;;;4937755;29;20070;-85
2021/07/26 09:01:13;;;;;;;0.75;0.75;;;28.60;82.80;;;;;;4938574;29;20130;-87
2021/07/26 09:03:40;;;;;;;2.83;1.02;;;28.50;82.40;;;;;;4954731;29;20035;-79
2021/07/26 09:06:05;;;;;;;1.15;1.08;;;28.50;81.20;;;;;;4954928;29;20039;-82
2021/07/26 09:08:36;;;;;;;1.15;0.68;;;28.60;81.60;;;;;;4954536;29;20047;-81
2021/07/26 09:11:06;;;;;;;0.70;0.70;;;28.70;80.20;;;;;;4953853;29;20102;-84
2021/07/26 09:13:45;;;;;;;3.60;0.98;;;28.80;80.80;;;;;;4955193;29;20067;-86
2021/07/26 09:16:25;;;;;;;0.52;0.52;;;29.30;81.00;;;;;;4937850;29;20031;-85
2021/07/26 09:19:06;;;;;;;0.38;0.38;;;29.70;80.60;;;;;;4937463;29;20039;-83
2021/07/26 09:21:56;;;;;;;1.00;0.90;;;29.80;79.40;;;;;;4936955;29;20042;-83
2021/07/26 09:24:26;;;;;;;0.50;0.50;;;30.00;79.00;;;;;;4954845;29;20326;-88
2021/07/26 09:26:52;;;;;;;;;;;29.80;77.90;;;;;;4953363;29;20070;-87
2021/07/26 09:29:29;;;;;;;2.45;1.58;;;29.80;79.20;;;;;;4952381;29;20275;-83
2021/07/26 09:32:00;;;;;;;0.65;0.57;;;30.00;77.60;;;;;;4936234;29;20101;-78
2021/07/26 09:34:27;;;;;;;1.10;1.00;;;30.10;77.10;;;;;;4953388;29;20047;-84
2021/07/26 09:36:53;;;;;;;1.00;0.70;;;30.30;76.50;;;;;;4953414;29;20154;-86
2021/07/26 09:39:29;;;;;;;3.13;1.58;;;30.50;76.30;;;;;;4953426;29;20102;-87
2021/07/26 09:41:58;;;;;;;1.67;1.00;;;30.60;76.00;;;;;;4937443;29;20570;-85
2021/07/26 09:44:28;;;;;;;4.40;1.93;;;30.80;75.80;;;;;;4954025;29;20054;-82
2021/07/26 09:47:17;;;;;;;1.38;0.68;;;31.00;75.10;;;;;;4936948;29;20422;-85
2021/07/26 09:49:44;;;;;;;2.03;1.25;;;31.20;74.90;;;;;;4953920;29;20039;-81
2021/07/26 09:52:27;;;;;;;1.02;0.82;;;31.20;74.50;;;;;;4953885;29;20031;-84
2021/07/26 09:54:54;;;;;;;1.65;1.33;;;31.40;72.80;;;;;;4954231;29;20050;-86
2021/07/26 09:57:26;;;;;;;0.50;0.50;;;31.50;72.70;;;;;;4953370;28;20082;-85
2021/07/26 09:59:53;;;;;;;0.50;0.50;;;31.40;70.30;;;;;;4936690;29;20039;-87
2021/07/26 10:02:25;;;;;;;0.30;0.30;;;31.20;69.80;;;;;;4953893;29;20104;-85
2021/07/26 10:04:51;;;;;;;1.63;1.02;;;31.30;69.30;;;;;;4953745;29;20035;-83
2021/07/26 10:07:18;;;;;;;1.00;0.90;;;31.50;68.80;;;;;;4953730;29;20056;-81
2021/07/26 10:09:45;;;;;;;1.27;0.95;;;31.50;68.70;;;;;;4953991;29;20047;-81
2021/07/26 10:12:16;;;;;;;1.33;1.15;;;31.50;69.00;;;;;;4953748;29;20175;-82
2021/07/26 10:14:43;;;;;;;1.05;0.85;;;31.70;68.60;;;;;;4953755;29;20046;-82
2021/07/26 10:17:09;;;;;;;0.50;0.50;;;32.00;68.20;;;;;;4936713;29;20035;-84
2021/07/26 10:19:35;;;;;;;19.45;2.05;;;32.00;67.30;;;;;;4936484;29;20035;-83
2021/07/26 10:22:04;;;;;;;0.85;0.75;;;32.30;66.70;;;;;;4953309;29;20027;-82
2021/07/26 10:24:54;;;;;;;0.75;0.60;;;32.30;65.90;;;;;;4953892;29;20031;-84
2021/07/26 10:27:23;;;;;;;1.83;1.55;;;32.60;65.30;;;;;;4936399;29;20040;-80
2021/07/26 10:29:54;;;;;;;1.45;0.70;;;32.70;64.10;;;;;;4936078;29;20410;-80
2021/07/26 10:32:28;;;;;;;0.50;0.50;;;32.50;63.50;;;;;;4953274;28;20054;-79
2021/07/26 10:34:55;;;;;;;0.73;0.70;;;32.60;63.70;;;;;;4953368;29;20122;-80
2021/07/26 10:37:39;;;;;;;0.57;0.57;;;32.80;63.60;;;;;;4953270;29;20057;-78
2021/07/26 10:40:24;;;;;;;1.10;0.75;;;33.00;62.90;;;;;;4936277;29;20039;-81
2021/07/26 10:42:54;;;;;;;1.52;0.63;;;33.30;62.90;;;;;;4936278;29;20043;-88
2021/07/26 10:45:31;;;;;;;0.88;0.47;;;33.20;61.80;;;;;;4953148;29;20023;-84
2021/07/26 10:48:22;;;;;;;0.45;0.45;;;33.40;61.00;;;;;;4936117;29;20050;-80
2021/07/26 10:50:49;;;;;;;0.35;0.35;;;33.60;61.60;;;;;;4953460;29;20487;-79
2021/07/26 10:53:36;;;;;;;0.70;0.30;;;33.60;61.20;;;;;;4953029;29;20042;-84
2021/07/26 10:56:11;;;;;;;0.57;0.57;;;33.60;60.60;;;;;;4936165;29;20039;-84
2021/07/26 10:58:39;;;;;;;2.03;1.27;;;33.80;61.40;;;;;;4953179;28;20042;-81
2021/07/26 11:01:20;;;;;;;2.00;1.67;;;33.80;59.90;;;;;;4953407;29;20380;-87
2021/07/26 11:03:47;;;;;;;0.95;0.75;;;33.90;59.70;;;;;;4952809;29;20032;-81
2021/07/26 11:06:34;;;;;;;0.73;0.73;;;34.00;59.70;;;;;;4953380;29;20487;-88
2021/07/26 11:09:21;;;;;;;1.05;0.85;;;34.00;59.70;;;;;;4953015;29;20055;-81
2021/07/26 11:11:53;;;;;;;1.00;0.63;;;34.20;59.50;;;;;;4953239;29;20035;-87
2021/07/26 11:14:20;;;;;;;4.80;3.22;;;34.30;58.90;;;;;;4952947;29;20062;-83
2021/07/26 11:16:53;;;;;;;0.75;0.68;;;34.40;58.00;;;;;;4952904;29;20027;-86
2021/07/26 11:19:40;;;;;;;1.23;0.98;;;34.40;57.80;;;;;;4952983;29;20047;-84
2021/07/26 11:22:15;;;;;;;2.20;0.38;;;34.70;58.30;;;;;;4936332;29;20531;-86
2021/07/26 11:24:41;;;;;;;0.70;0.60;;;34.90;59.20;;;;;;4935992;29;20483;-87
2021/07/26 11:27:10;;;;;;;0.40;0.35;;;34.70;59.00;;;;;;4935738;29;20086;-86
2021/07/26 11:29:36;;;;;;;0.73;0.55;;;34.60;60.20;;;;;;4953159;29;20051;-84
2021/07/26 11:32:02;;;;;;;0.35;0.35;;;34.30;60.00;;;;;;4953482;29;20386;-81
2021/07/26 11:34:35;;;;;;;0.25;0.25;;;34.40;60.30;;;;;;4953013;29;20451;-85
2021/07/26 11:37:09;;;;;;;0.50;0.50;;;34.50;59.60;;;;;;4953184;29;20037;-86
2021/07/26 11:39:51;;;;;;;1.05;0.75;;;34.70;58.80;;;;;;4952870;29;20045;-84
2021/07/26 11:42:24;;;;;;;2.30;1.17;;;34.90;58.80;;;;;;4952984;28;20106;-84
2021/07/26 11:44:50;;;;;;;1.13;0.93;;;34.90;58.70;;;;;;4955657;29;20019;-83
2021/07/26 11:47:17;;;;;;;3.53;1.20;;;35.10;58.80;;;;;;4956076;29;20493;-83
2021/07/26 11:49:47;;;;;;;0.98;0.60;;;35.20;58.60;;;;;;4956199;29;20529;-83
2021/07/26 11:52:13;;;;;;;0.60;0.60;;;34.80;57.60;;;;;;4939386;29;20444;-83
2021/07/26 11:54:39;;;;;;;2.08;0.93;;;35.00;57.80;;;;;;4939150;29;20491;-84
2021/07/26 11:57:06;;;;;;;0.65;0.57;;;35.20;57.70;;;;;;4955899;28;20372;-87
2021/07/26 11:59:34;;;;;;;0.75;0.65;;;35.30;57.10;;;;;;4956231;29;20050;-90
2021/07/26 12:02:05;;;;;;;1.48;1.08;;;35.10;57.10;;;;;;4956588;29;20421;-83
2021/07/26 12:04:31;;;;;;;1.00;0.70;;;34.80;57.20;;;;;;4956081;29;20061;-82
2021/07/26 12:07:01;;;;;;;1.02;0.93;;;35.30;57.00;;;;;;4956463;29;20023;-85
2021/07/26 12:09:27;;;;;;;0.30;0.30;;;35.60;56.50;;;;;;4956729;29;20142;-82
2021/07/26 12:11:55;;;;;;;2.10;1.13;;;35.30;56.10;;;;;;4956162;29;20539;-88
2021/07/26 12:14:31;;;;;;;0.52;0.52;;;35.10;55.60;;;;;;4955395;29;20053;-89
2021/07/26 12:17:01;;;;;;;7.47;1.15;;;35.20;56.10;;;;;;4956406;29;20054;-85
2021/07/26 12:19:28;;;;;;;1.30;0.82;;;35.30;55.80;;;;;;4955860;29;20027;-83
2021/07/26 12:21:55;;;;;;;2.58;0.82;;;35.60;55.30;;;;;;4956042;29;20043;-84
2021/07/26 12:24:46;;;;;;;0.50;0.43;;;36.00;54.40;;;;;;4955870;29;20031;-88
2021/07/26 12:27:24;;;;;;;0.80;0.73;;;36.30;54.50;;;;;;4955750;29;20073;-87
2021/07/26 12:30:12;;;;;;;0.70;0.60;;;36.60;54.40;;;;;;4938118;29;20122;-84
2021/07/26 12:32:50;;;;;;;2.50;1.40;;;36.90;53.70;;;;;;4955517;29;20435;-86
2021/07/26 12:35:19;;;;;;;1.23;0.98;;;36.00;52.20;;;;;;4955468;29;20482;-88
2021/07/26 12:38:03;;;;;;;;;;;36.00;53.10;;;;;;4938833;29;20035;-82
2021/07/26 12:40:29;;;;;;;1.00;0.88;;;36.10;53.50;;;;;;4955554;29;19921;-88
2021/07/26 12:43:09;;;;;;;1.33;0.77;;;36.20;52.60;;;;;;4955511;29;20363;-84
2021/07/26 12:45:36;;;;;;;1.17;0.95;;;36.30;52.60;;;;;;4955523;29;20067;-89
2021/07/26 12:48:15;;;;;;;3.80;1.80;;;36.80;53.20;;;;;;4955517;29;20055;-88
2021/07/26 12:50:42;;;;;;;0.57;0.55;;;37.20;52.40;;;;;;4955356;29;20035;-87
2021/07/26 12:53:09;;;;;;;0.50;0.50;;;37.40;51.70;;;;;;4954917;29;20031;-86
2021/07/26 12:55:35;;;;;;;1.08;1.00;;;37.00;51.10;;;;;;4953849;28;20409;-86
2021/07/26 12:58:01;;;;;;;0.45;0.45;;;37.10;51.50;;;;;;4954912;28;20488;-83